sensor_id;sensor_type;location;lat;lon;timestamp;P1;durP1;ratioP1;P2;durP2;ratioP2
52668;SDS011;74205;52.786;6.892;2024-01-11T00:02:59;32.90;;;25.95;;
52668;SDS011;74205;52.786;6.892;2024-01-11T00:06:20;32.67;;;26.48;;
52668;SDS011;74205;52.786;6.892;2024-01-11T00:09:41;34.80;;;27.65;;
52668;SDS011;74205;52.786;6.892;2024-01-11T00:13:02;35.60;;;27.80;;
52668;SDS011;74205;52.786;6.892;2024-01-11T00:16:24;33.95;;;27.73;;
52668;SDS011;74205;52.786;6.892;2024-01-11T00:19:44;38.67;;;30.38;;
52668;SDS011;74205;52.786;6.892;2024-01-11T00:23:05;39.60;;;29.10;;
52668;SDS011;74205;52.786;6.892;2024-01-11T00:26:25;41.67;;;30.00;;
52668;SDS011;74205;52.786;6.892;2024-01-11T00:29:46;37.70;;;27.60;;
52668;SDS011;74205;52.786;6.892;2024-01-11T00:33:06;38.45;;;28.10;;
52668;SDS011;74205;52.786;6.892;2024-01-11T00:36:27;38.45;;;28.00;;
52668;SDS011;74205;52.786;6.892;2024-01-11T00:39:48;35.00;;;27.70;;
52668;SDS011;74205;52.786;6.892;2024-01-11T00:43:09;35.20;;;28.45;;
52668;SDS011;74205;52.786;6.892;2024-01-11T00:46:29;35.95;;;27.77;;
52668;SDS011;74205;52.786;6.892;2024-01-11T00:49:50;41.63;;;30.15;;
52668;SDS011;74205;52.786;6.892;2024-01-11T00:53:11;40.65;;;32.05;;
52668;SDS011;74205;52.786;6.892;2024-01-11T00:56:34;42.85;;;31.75;;
52668;SDS011;74205;52.786;6.892;2024-01-11T00:59:54;40.60;;;29.45;;
52668;SDS011;74205;52.786;6.892;2024-01-11T01:03:15;45.08;;;32.90;;
52668;SDS011;74205;52.786;6.892;2024-01-11T01:06:36;42.08;;;32.47;;
52668;SDS011;74205;52.786;6.892;2024-01-11T01:09:56;42.65;;;30.30;;
52668;SDS011;74205;52.786;6.892;2024-01-11T01:13:17;43.42;;;32.47;;
52668;SDS011;74205;52.786;6.892;2024-01-11T01:16:38;43.50;;;33.85;;
52668;SDS011;74205;52.786;6.892;2024-01-11T01:19:58;45.97;;;32.88;;
52668;SDS011;74205;52.786;6.892;2024-01-11T01:23:19;41.67;;;30.40;;
52668;SDS011;74205;52.786;6.892;2024-01-11T01:26:40;49.00;;;34.50;;
52668;SDS011;74205;52.786;6.892;2024-01-11T01:30:01;38.92;;;29.83;;
52668;SDS011;74205;52.786;6.892;2024-01-11T01:33:23;42.55;;;32.15;;
52668;SDS011;74205;52.786;6.892;2024-01-11T01:36:43;38.08;;;30.70;;
52668;SDS011;74205;52.786;6.892;2024-01-11T01:40:04;41.10;;;31.73;;
52668;SDS011;74205;52.786;6.892;2024-01-11T01:43:25;40.42;;;31.90;;
52668;SDS011;74205;52.786;6.892;2024-01-11T01:46:46;43.60;;;33.58;;
52668;SDS011;74205;52.786;6.892;2024-01-11T01:50:10;45.07;;;33.43;;
52668;SDS011;74205;52.786;6.892;2024-01-11T01:53:31;53.17;;;37.85;;
52668;SDS011;74205;52.786;6.892;2024-01-11T01:56:52;42.75;;;32.90;;
52668;SDS011;74205;52.786;6.892;2024-01-11T02:00:13;42.25;;;31.90;;
52668;SDS011;74205;52.786;6.892;2024-01-11T02:03:34;45.80;;;34.10;;
52668;SDS011;74205;52.786;6.892;2024-01-11T02:06:56;49.13;;;35.95;;
52668;SDS011;74205;52.786;6.892;2024-01-11T02:10:18;44.70;;;32.55;;
52668;SDS011;74205;52.786;6.892;2024-01-11T02:13:39;43.25;;;32.35;;
52668;SDS011;74205;52.786;6.892;2024-01-11T02:17:00;42.85;;;31.17;;
52668;SDS011;74205;52.786;6.892;2024-01-11T02:20:22;45.00;;;32.85;;
52668;SDS011;74205;52.786;6.892;2024-01-11T02:23:43;43.28;;;32.88;;
52668;SDS011;74205;52.786;6.892;2024-01-11T02:27:06;47.05;;;34.38;;
52668;SDS011;74205;52.786;6.892;2024-01-11T02:30:28;41.22;;;30.60;;
52668;SDS011;74205;52.786;6.892;2024-01-11T02:33:49;44.38;;;33.67;;
52668;SDS011;74205;52.786;6.892;2024-01-11T02:37:10;46.08;;;32.67;;
52668;SDS011;74205;52.786;6.892;2024-01-11T02:40:31;44.38;;;31.88;;
52668;SDS011;74205;52.786;6.892;2024-01-11T02:43:52;50.33;;;35.95;;
52668;SDS011;74205;52.786;6.892;2024-01-11T02:47:14;43.53;;;30.92;;
52668;SDS011;74205;52.786;6.892;2024-01-11T02:50:35;43.92;;;34.15;;
52668;SDS011;74205;52.786;6.892;2024-01-11T02:53:55;45.05;;;33.00;;
52668;SDS011;74205;52.786;6.892;2024-01-11T02:57:16;44.55;;;33.97;;
52668;SDS011;74205;52.786;6.892;2024-01-11T03:00:36;43.17;;;31.88;;
52668;SDS011;74205;52.786;6.892;2024-01-11T03:03:57;49.00;;;36.13;;
52668;SDS011;74205;52.786;6.892;2024-01-11T03:07:18;48.17;;;34.28;;
52668;SDS011;74205;52.786;6.892;2024-01-11T03:10:38;42.45;;;30.90;;
52668;SDS011;74205;52.786;6.892;2024-01-11T03:13:59;48.08;;;32.72;;
52668;SDS011;74205;52.786;6.892;2024-01-11T03:17:19;40.55;;;31.73;;
52668;SDS011;74205;52.786;6.892;2024-01-11T03:20:40;45.13;;;34.05;;
52668;SDS011;74205;52.786;6.892;2024-01-11T03:24:01;44.85;;;33.20;;
52668;SDS011;74205;52.786;6.892;2024-01-11T03:27:22;46.90;;;34.25;;
52668;SDS011;74205;52.786;6.892;2024-01-11T03:30:42;43.63;;;32.10;;
52668;SDS011;74205;52.786;6.892;2024-01-11T03:34:03;44.35;;;31.73;;
52668;SDS011;74205;52.786;6.892;2024-01-11T03:37:24;44.70;;;32.25;;
52668;SDS011;74205;52.786;6.892;2024-01-11T03:40:44;46.47;;;32.40;;
52668;SDS011;74205;52.786;6.892;2024-01-11T03:44:05;46.22;;;35.15;;
52668;SDS011;74205;52.786;6.892;2024-01-11T03:47:26;53.63;;;34.85;;
52668;SDS011;74205;52.786;6.892;2024-01-11T03:50:46;46.47;;;32.55;;
52668;SDS011;74205;52.786;6.892;2024-01-11T03:54:07;46.05;;;33.33;;
52668;SDS011;74205;52.786;6.892;2024-01-11T03:57:27;47.42;;;34.55;;
52668;SDS011;74205;52.786;6.892;2024-01-11T04:00:48;44.13;;;33.65;;
52668;SDS011;74205;52.786;6.892;2024-01-11T04:04:08;47.33;;;32.85;;
52668;SDS011;74205;52.786;6.892;2024-01-11T04:07:30;47.53;;;33.88;;
52668;SDS011;74205;52.786;6.892;2024-01-11T04:10:50;52.05;;;35.22;;
52668;SDS011;74205;52.786;6.892;2024-01-11T04:14:11;44.45;;;32.35;;
52668;SDS011;74205;52.786;6.892;2024-01-11T04:17:32;45.30;;;32.63;;
52668;SDS011;74205;52.786;6.892;2024-01-11T04:20:53;48.05;;;35.22;;
52668;SDS011;74205;52.786;6.892;2024-01-11T04:24:13;52.85;;;36.08;;
52668;SDS011;74205;52.786;6.892;2024-01-11T04:27:34;48.35;;;34.53;;
52668;SDS011;74205;52.786;6.892;2024-01-11T04:30:54;47.85;;;35.28;;
52668;SDS011;74205;52.786;6.892;2024-01-11T04:34:15;49.90;;;35.70;;
52668;SDS011;74205;52.786;6.892;2024-01-11T04:37:35;46.63;;;34.00;;
52668;SDS011;74205;52.786;6.892;2024-01-11T04:40:56;47.70;;;34.83;;
52668;SDS011;74205;52.786;6.892;2024-01-11T04:44:17;47.88;;;34.95;;
52668;SDS011;74205;52.786;6.892;2024-01-11T04:47:37;46.33;;;34.33;;
52668;SDS011;74205;52.786;6.892;2024-01-11T04:50:58;47.42;;;34.08;;
52668;SDS011;74205;52.786;6.892;2024-01-11T04:54:19;49.03;;;34.78;;
52668;SDS011;74205;52.786;6.892;2024-01-11T04:57:39;47.50;;;34.33;;
52668;SDS011;74205;52.786;6.892;2024-01-11T05:01:00;50.92;;;34.53;;
52668;SDS011;74205;52.786;6.892;2024-01-11T05:04:20;48.47;;;35.03;;
52668;SDS011;74205;52.786;6.892;2024-01-11T05:07:41;51.97;;;35.38;;
52668;SDS011;74205;52.786;6.892;2024-01-11T05:11:01;49.38;;;34.30;;
52668;SDS011;74205;52.786;6.892;2024-01-11T05:14:22;50.83;;;35.88;;
52668;SDS011;74205;52.786;6.892;2024-01-11T05:17:43;54.88;;;37.92;;
52668;SDS011;74205;52.786;6.892;2024-01-11T05:21:03;51.63;;;35.50;;
52668;SDS011;74205;52.786;6.892;2024-01-11T05:24:24;48.28;;;35.55;;
52668;SDS011;74205;52.786;6.892;2024-01-11T05:27:45;50.88;;;37.72;;
52668;SDS011;74205;52.786;6.892;2024-01-11T05:31:07;50.67;;;36.28;;
52668;SDS011;74205;52.786;6.892;2024-01-11T05:37:50;52.50;;;38.13;;
52668;SDS011;74205;52.786;6.892;2024-01-11T05:41:10;54.08;;;38.88;;
52668;SDS011;74205;52.786;6.892;2024-01-11T05:44:31;49.65;;;37.42;;
52668;SDS011;74205;52.786;6.892;2024-01-11T05:47:52;51.40;;;37.72;;
52668;SDS011;74205;52.786;6.892;2024-01-11T05:51:13;56.38;;;39.10;;
52668;SDS011;74205;52.786;6.892;2024-01-11T05:54:33;51.05;;;35.80;;
52668;SDS011;74205;52.786;6.892;2024-01-11T05:57:54;50.33;;;37.58;;
52668;SDS011;74205;52.786;6.892;2024-01-11T06:01:14;58.00;;;37.50;;
52668;SDS011;74205;52.786;6.892;2024-01-11T06:04:35;54.42;;;38.38;;
52668;SDS011;74205;52.786;6.892;2024-01-11T06:07:56;61.85;;;37.08;;
52668;SDS011;74205;52.786;6.892;2024-01-11T06:11:16;53.17;;;37.53;;
52668;SDS011;74205;52.786;6.892;2024-01-11T06:14:38;57.13;;;38.75;;
52668;SDS011;74205;52.786;6.892;2024-01-11T06:17:58;50.33;;;34.00;;
52668;SDS011;74205;52.786;6.892;2024-01-11T06:21:19;50.05;;;35.22;;
52668;SDS011;74205;52.786;6.892;2024-01-11T06:24:39;54.42;;;38.13;;
52668;SDS011;74205;52.786;6.892;2024-01-11T06:28:02;55.80;;;36.08;;
52668;SDS011;74205;52.786;6.892;2024-01-11T06:31:23;55.22;;;38.03;;
52668;SDS011;74205;52.786;6.892;2024-01-11T06:34:44;55.00;;;34.78;;
52668;SDS011;74205;52.786;6.892;2024-01-11T06:38:06;54.28;;;35.53;;
52668;SDS011;74205;52.786;6.892;2024-01-11T06:41:27;50.28;;;35.85;;
52668;SDS011;74205;52.786;6.892;2024-01-11T06:44:48;55.17;;;37.92;;
52668;SDS011;74205;52.786;6.892;2024-01-11T06:48:08;53.65;;;37.05;;
52668;SDS011;74205;52.786;6.892;2024-01-11T06:51:29;49.45;;;33.92;;
52668;SDS011;74205;52.786;6.892;2024-01-11T06:54:49;54.47;;;35.30;;
52668;SDS011;74205;52.786;6.892;2024-01-11T06:58:10;55.90;;;35.38;;
52668;SDS011;74205;52.786;6.892;2024-01-11T07:01:31;49.63;;;35.72;;
52668;SDS011;74205;52.786;6.892;2024-01-11T07:04:51;59.63;;;37.53;;
52668;SDS011;74205;52.786;6.892;2024-01-11T07:08:12;58.53;;;38.80;;
52668;SDS011;74205;52.786;6.892;2024-01-11T07:11:33;58.33;;;37.20;;
52668;SDS011;74205;52.786;6.892;2024-01-11T07:14:54;54.90;;;34.45;;
52668;SDS011;74205;52.786;6.892;2024-01-11T07:18:14;55.45;;;36.65;;
52668;SDS011;74205;52.786;6.892;2024-01-11T07:21:35;55.15;;;36.30;;
52668;SDS011;74205;52.786;6.892;2024-01-11T07:24:55;60.95;;;37.22;;
52668;SDS011;74205;52.786;6.892;2024-01-11T07:28:16;50.80;;;35.00;;
52668;SDS011;74205;52.786;6.892;2024-01-11T07:31:37;49.38;;;35.55;;
52668;SDS011;74205;52.786;6.892;2024-01-11T07:34:58;55.97;;;37.50;;
52668;SDS011;74205;52.786;6.892;2024-01-11T07:38:18;50.15;;;35.03;;
52668;SDS011;74205;52.786;6.892;2024-01-11T07:41:39;55.15;;;36.25;;
52668;SDS011;74205;52.786;6.892;2024-01-11T07:44:59;55.95;;;36.70;;
52668;SDS011;74205;52.786;6.892;2024-01-11T07:48:20;60.45;;;39.17;;
52668;SDS011;74205;52.786;6.892;2024-01-11T07:51:41;54.42;;;38.53;;
52668;SDS011;74205;52.786;6.892;2024-01-11T07:55:02;54.08;;;34.80;;
52668;SDS011;74205;52.786;6.892;2024-01-11T07:58:27;53.38;;;36.35;;
52668;SDS011;74205;52.786;6.892;2024-01-11T08:01:48;53.33;;;36.05;;
52668;SDS011;74205;52.786;6.892;2024-01-11T08:05:08;57.35;;;36.80;;
52668;SDS011;74205;52.786;6.892;2024-01-11T08:08:29;51.33;;;36.38;;
52668;SDS011;74205;52.786;6.892;2024-01-11T08:11:50;55.00;;;36.88;;
52668;SDS011;74205;52.786;6.892;2024-01-11T08:15:12;48.88;;;35.95;;
52668;SDS011;74205;52.786;6.892;2024-01-11T08:18:33;52.95;;;37.15;;
52668;SDS011;74205;52.786;6.892;2024-01-11T08:21:53;53.72;;;35.65;;
52668;SDS011;74205;52.786;6.892;2024-01-11T08:25:16;49.05;;;36.42;;
52668;SDS011;74205;52.786;6.892;2024-01-11T08:28:37;54.72;;;38.38;;
52668;SDS011;74205;52.786;6.892;2024-01-11T08:31:58;49.75;;;34.00;;
52668;SDS011;74205;52.786;6.892;2024-01-11T08:35:18;60.80;;;39.08;;
52668;SDS011;74205;52.786;6.892;2024-01-11T08:38:39;52.08;;;35.60;;
52668;SDS011;74205;52.786;6.892;2024-01-11T08:42:00;59.80;;;40.40;;
52668;SDS011;74205;52.786;6.892;2024-01-11T08:45:21;79.55;;;55.15;;
52668;SDS011;74205;52.786;6.892;2024-01-11T08:48:42;59.42;;;38.85;;
52668;SDS011;74205;52.786;6.892;2024-01-11T08:52:03;63.25;;;39.45;;
52668;SDS011;74205;52.786;6.892;2024-01-11T08:55:23;59.42;;;37.05;;
52668;SDS011;74205;52.786;6.892;2024-01-11T08:58:44;58.58;;;37.80;;
52668;SDS011;74205;52.786;6.892;2024-01-11T09:02:05;53.13;;;35.97;;
52668;SDS011;74205;52.786;6.892;2024-01-11T09:05:25;56.55;;;39.42;;
52668;SDS011;74205;52.786;6.892;2024-01-11T09:08:46;54.63;;;37.97;;
52668;SDS011;74205;52.786;6.892;2024-01-11T09:12:06;55.08;;;36.58;;
52668;SDS011;74205;52.786;6.892;2024-01-11T09:15:27;59.45;;;40.42;;
52668;SDS011;74205;52.786;6.892;2024-01-11T09:18:48;55.88;;;38.30;;
52668;SDS011;74205;52.786;6.892;2024-01-11T09:22:08;55.05;;;38.17;;
52668;SDS011;74205;52.786;6.892;2024-01-11T09:25:30;54.47;;;37.88;;
52668;SDS011;74205;52.786;6.892;2024-01-11T09:28:50;50.78;;;38.50;;
52668;SDS011;74205;52.786;6.892;2024-01-11T09:32:14;53.45;;;36.17;;
52668;SDS011;74205;52.786;6.892;2024-01-11T09:35:35;52.67;;;36.38;;
52668;SDS011;74205;52.786;6.892;2024-01-11T09:38:55;60.85;;;37.42;;
52668;SDS011;74205;52.786;6.892;2024-01-11T09:42:16;49.10;;;33.75;;
52668;SDS011;74205;52.786;6.892;2024-01-11T09:45:38;55.20;;;36.87;;
52668;SDS011;74205;52.786;6.892;2024-01-11T09:48:59;49.88;;;35.13;;
52668;SDS011;74205;52.786;6.892;2024-01-11T09:52:23;51.42;;;38.15;;
52668;SDS011;74205;52.786;6.892;2024-01-11T09:55:45;49.28;;;35.60;;
52668;SDS011;74205;52.786;6.892;2024-01-11T09:59:07;49.33;;;36.53;;
52668;SDS011;74205;52.786;6.892;2024-01-11T10:02:29;53.97;;;37.40;;
52668;SDS011;74205;52.786;6.892;2024-01-11T10:05:50;56.70;;;40.88;;
52668;SDS011;74205;52.786;6.892;2024-01-11T10:09:16;85.18;;;61.05;;
52668;SDS011;74205;52.786;6.892;2024-01-11T10:12:38;58.45;;;43.03;;
52668;SDS011;74205;52.786;6.892;2024-01-11T10:16:08;61.83;;;42.90;;
52668;SDS011;74205;52.786;6.892;2024-01-11T10:19:29;52.33;;;37.88;;
52668;SDS011;74205;52.786;6.892;2024-01-11T10:22:50;61.90;;;43.70;;
52668;SDS011;74205;52.786;6.892;2024-01-11T10:26:15;59.92;;;39.85;;
52668;SDS011;74205;52.786;6.892;2024-01-11T10:29:37;56.17;;;38.28;;
52668;SDS011;74205;52.786;6.892;2024-01-11T10:32:57;56.45;;;38.13;;
52668;SDS011;74205;52.786;6.892;2024-01-11T10:36:19;57.30;;;39.47;;
52668;SDS011;74205;52.786;6.892;2024-01-11T10:39:39;55.30;;;40.63;;
52668;SDS011;74205;52.786;6.892;2024-01-11T10:43:01;55.40;;;39.15;;
52668;SDS011;74205;52.786;6.892;2024-01-11T10:46:25;54.83;;;36.95;;
52668;SDS011;74205;52.786;6.892;2024-01-11T10:49:48;46.40;;;36.67;;
52668;SDS011;74205;52.786;6.892;2024-01-11T10:53:12;53.13;;;38.17;;
52668;SDS011;74205;52.786;6.892;2024-01-11T10:56:37;55.20;;;38.80;;
52668;SDS011;74205;52.786;6.892;2024-01-11T11:03:23;52.88;;;38.60;;
52668;SDS011;74205;52.786;6.892;2024-01-11T11:06:45;51.63;;;39.03;;
52668;SDS011;74205;52.786;6.892;2024-01-11T11:10:06;57.15;;;38.97;;
52668;SDS011;74205;52.786;6.892;2024-01-11T11:13:29;55.55;;;38.42;;
52668;SDS011;74205;52.786;6.892;2024-01-11T11:16:50;52.17;;;35.22;;
52668;SDS011;74205;52.786;6.892;2024-01-11T11:20:12;54.08;;;36.38;;
52668;SDS011;74205;52.786;6.892;2024-01-11T11:23:33;49.72;;;37.20;;
52668;SDS011;74205;52.786;6.892;2024-01-11T11:26:54;49.15;;;34.55;;
52668;SDS011;74205;52.786;6.892;2024-01-11T11:30:18;45.83;;;34.22;;
52668;SDS011;74205;52.786;6.892;2024-01-11T11:33:40;49.42;;;34.05;;
52668;SDS011;74205;52.786;6.892;2024-01-11T11:37:00;47.30;;;33.67;;
52668;SDS011;74205;52.786;6.892;2024-01-11T11:40:21;44.20;;;33.97;;
52668;SDS011;74205;52.786;6.892;2024-01-11T11:43:42;46.70;;;34.97;;
52668;SDS011;74205;52.786;6.892;2024-01-11T11:47:21;45.92;;;32.05;;
52668;SDS011;74205;52.786;6.892;2024-01-11T11:50:43;44.80;;;32.90;;
52668;SDS011;74205;52.786;6.892;2024-01-11T11:54:04;47.85;;;33.67;;
52668;SDS011;74205;52.786;6.892;2024-01-11T11:57:25;46.50;;;34.15;;
52668;SDS011;74205;52.786;6.892;2024-01-11T12:00:50;46.22;;;32.60;;
52668;SDS011;74205;52.786;6.892;2024-01-11T12:04:13;45.22;;;32.88;;
52668;SDS011;74205;52.786;6.892;2024-01-11T12:07:35;39.92;;;30.10;;
52668;SDS011;74205;52.786;6.892;2024-01-11T12:10:55;41.95;;;29.40;;
52668;SDS011;74205;52.786;6.892;2024-01-11T12:14:16;42.90;;;30.80;;
52668;SDS011;74205;52.786;6.892;2024-01-11T12:17:37;37.75;;;27.90;;
52668;SDS011;74205;52.786;6.892;2024-01-11T12:21:02;39.55;;;29.15;;
52668;SDS011;74205;52.786;6.892;2024-01-11T12:24:23;36.35;;;27.50;;
52668;SDS011;74205;52.786;6.892;2024-01-11T12:27:44;41.15;;;31.42;;
52668;SDS011;74205;52.786;6.892;2024-01-11T12:31:05;38.17;;;28.35;;
52668;SDS011;74205;52.786;6.892;2024-01-11T12:34:26;41.83;;;30.35;;
52668;SDS011;74205;52.786;6.892;2024-01-11T12:37:54;36.10;;;27.48;;
52668;SDS011;74205;52.786;6.892;2024-01-11T12:41:24;40.80;;;30.67;;
52668;SDS011;74205;52.786;6.892;2024-01-11T12:44:45;36.03;;;28.00;;
52668;SDS011;74205;52.786;6.892;2024-01-11T12:48:10;40.47;;;31.08;;
52668;SDS011;74205;52.786;6.892;2024-01-11T12:51:35;43.35;;;27.45;;
52668;SDS011;74205;52.786;6.892;2024-01-11T12:54:56;36.33;;;27.47;;
52668;SDS011;74205;52.786;6.892;2024-01-11T12:58:21;34.72;;;27.52;;
52668;SDS011;74205;52.786;6.892;2024-01-11T13:01:42;52.10;;;37.92;;
52668;SDS011;74205;52.786;6.892;2024-01-11T13:05:03;44.00;;;31.63;;
52668;SDS011;74205;52.786;6.892;2024-01-11T13:08:24;37.47;;;28.42;;
52668;SDS011;74205;52.786;6.892;2024-01-11T13:11:45;40.92;;;29.55;;
52668;SDS011;74205;52.786;6.892;2024-01-11T13:15:06;41.13;;;30.48;;
52668;SDS011;74205;52.786;6.892;2024-01-11T13:18:27;42.83;;;32.40;;
52668;SDS011;74205;52.786;6.892;2024-01-11T13:21:47;42.40;;;31.23;;
52668;SDS011;74205;52.786;6.892;2024-01-11T13:25:08;47.47;;;33.13;;
52668;SDS011;74205;52.786;6.892;2024-01-11T13:28:29;40.47;;;29.30;;
52668;SDS011;74205;52.786;6.892;2024-01-11T13:31:50;44.38;;;29.77;;
52668;SDS011;74205;52.786;6.892;2024-01-11T13:35:10;46.22;;;31.27;;
52668;SDS011;74205;52.786;6.892;2024-01-11T13:38:31;44.63;;;30.48;;
52668;SDS011;74205;52.786;6.892;2024-01-11T13:41:52;44.92;;;32.15;;
52668;SDS011;74205;52.786;6.892;2024-01-11T13:45:12;44.58;;;32.80;;
52668;SDS011;74205;52.786;6.892;2024-01-11T13:48:33;47.65;;;33.20;;
52668;SDS011;74205;52.786;6.892;2024-01-11T13:51:53;45.75;;;32.53;;
52668;SDS011;74205;52.786;6.892;2024-01-11T13:55:14;47.30;;;34.45;;
52668;SDS011;74205;52.786;6.892;2024-01-11T13:58:35;49.58;;;36.72;;
52668;SDS011;74205;52.786;6.892;2024-01-11T14:01:55;55.97;;;35.33;;
52668;SDS011;74205;52.786;6.892;2024-01-11T14:05:16;61.38;;;35.72;;
52668;SDS011;74205;52.786;6.892;2024-01-11T14:08:37;49.55;;;34.00;;
52668;SDS011;74205;52.786;6.892;2024-01-11T14:11:58;53.13;;;36.17;;
52668;SDS011;74205;52.786;6.892;2024-01-11T14:15:19;51.90;;;34.80;;
52668;SDS011;74205;52.786;6.892;2024-01-11T14:18:39;49.55;;;36.65;;
52668;SDS011;74205;52.786;6.892;2024-01-11T14:22:00;50.40;;;35.17;;
52668;SDS011;74205;52.786;6.892;2024-01-11T14:25:21;52.45;;;32.90;;
52668;SDS011;74205;52.786;6.892;2024-01-11T14:28:44;46.83;;;34.28;;
52668;SDS011;74205;52.786;6.892;2024-01-11T14:32:05;52.08;;;35.47;;
52668;SDS011;74205;52.786;6.892;2024-01-11T14:35:26;55.28;;;34.97;;
52668;SDS011;74205;52.786;6.892;2024-01-11T14:38:46;54.25;;;37.80;;
52668;SDS011;74205;52.786;6.892;2024-01-11T14:42:07;58.58;;;39.33;;
52668;SDS011;74205;52.786;6.892;2024-01-11T14:45:29;52.35;;;34.95;;
52668;SDS011;74205;52.786;6.892;2024-01-11T14:48:49;64.10;;;45.95;;
52668;SDS011;74205;52.786;6.892;2024-01-11T14:52:10;52.75;;;36.80;;
52668;SDS011;74205;52.786;6.892;2024-01-11T14:55:31;49.30;;;36.00;;
52668;SDS011;74205;52.786;6.892;2024-01-11T14:58:52;54.85;;;35.53;;
52668;SDS011;74205;52.786;6.892;2024-01-11T15:02:13;58.78;;;37.45;;
52668;SDS011;74205;52.786;6.892;2024-01-11T15:05:33;56.97;;;37.53;;
52668;SDS011;74205;52.786;6.892;2024-01-11T15:08:54;63.78;;;39.63;;
52668;SDS011;74205;52.786;6.892;2024-01-11T15:12:15;57.38;;;37.78;;
52668;SDS011;74205;52.786;6.892;2024-01-11T15:15:35;57.40;;;38.80;;
52668;SDS011;74205;52.786;6.892;2024-01-11T15:18:56;61.45;;;39.35;;
52668;SDS011;74205;52.786;6.892;2024-01-11T15:22:16;51.40;;;37.75;;
52668;SDS011;74205;52.786;6.892;2024-01-11T15:25:37;56.42;;;37.42;;
52668;SDS011;74205;52.786;6.892;2024-01-11T15:28:58;59.70;;;39.00;;
52668;SDS011;74205;52.786;6.892;2024-01-11T15:32:18;56.92;;;38.67;;
52668;SDS011;74205;52.786;6.892;2024-01-11T15:35:39;63.72;;;39.17;;
52668;SDS011;74205;52.786;6.892;2024-01-11T15:38:59;62.85;;;37.40;;
52668;SDS011;74205;52.786;6.892;2024-01-11T15:42:20;59.80;;;41.60;;
52668;SDS011;74205;52.786;6.892;2024-01-11T15:45:41;61.55;;;40.63;;
52668;SDS011;74205;52.786;6.892;2024-01-11T15:49:01;65.82;;;40.92;;
52668;SDS011;74205;52.786;6.892;2024-01-11T15:52:22;62.78;;;40.17;;
52668;SDS011;74205;52.786;6.892;2024-01-11T15:55:42;68.00;;;40.75;;
52668;SDS011;74205;52.786;6.892;2024-01-11T15:59:03;61.10;;;41.75;;
52668;SDS011;74205;52.786;6.892;2024-01-11T16:02:24;61.00;;;39.22;;
52668;SDS011;74205;52.786;6.892;2024-01-11T16:05:44;66.32;;;41.83;;
52668;SDS011;74205;52.786;6.892;2024-01-11T16:09:05;60.53;;;40.30;;
52668;SDS011;74205;52.786;6.892;2024-01-11T16:12:26;60.42;;;39.05;;
52668;SDS011;74205;52.786;6.892;2024-01-11T16:15:46;67.13;;;42.42;;
52668;SDS011;74205;52.786;6.892;2024-01-11T16:19:08;71.10;;;44.20;;
52668;SDS011;74205;52.786;6.892;2024-01-11T16:22:30;66.78;;;39.88;;
52668;SDS011;74205;52.786;6.892;2024-01-11T16:25:50;68.82;;;43.88;;
52668;SDS011;74205;52.786;6.892;2024-01-11T16:29:11;65.15;;;41.67;;
52668;SDS011;74205;52.786;6.892;2024-01-11T16:32:32;71.95;;;41.58;;
52668;SDS011;74205;52.786;6.892;2024-01-11T16:35:53;68.68;;;41.47;;
52668;SDS011;74205;52.786;6.892;2024-01-11T16:39:15;60.15;;;41.47;;
52668;SDS011;74205;52.786;6.892;2024-01-11T16:42:36;64.55;;;43.65;;
52668;SDS011;74205;52.786;6.892;2024-01-11T16:45:57;61.25;;;39.85;;
52668;SDS011;74205;52.786;6.892;2024-01-11T16:49:17;69.65;;;42.55;;
52668;SDS011;74205;52.786;6.892;2024-01-11T16:52:40;58.73;;;39.20;;
52668;SDS011;74205;52.786;6.892;2024-01-11T16:56:00;77.05;;;44.63;;
52668;SDS011;74205;52.786;6.892;2024-01-11T16:59:21;80.93;;;45.30;;
52668;SDS011;74205;52.786;6.892;2024-01-11T17:02:42;93.93;;;49.13;;
52668;SDS011;74205;52.786;6.892;2024-01-11T17:06:02;62.95;;;40.90;;
52668;SDS011;74205;52.786;6.892;2024-01-11T17:09:23;71.47;;;45.22;;
52668;SDS011;74205;52.786;6.892;2024-01-11T17:12:44;64.32;;;41.78;;
52668;SDS011;74205;52.786;6.892;2024-01-11T17:16:04;79.82;;;43.95;;
52668;SDS011;74205;52.786;6.892;2024-01-11T17:19:26;71.90;;;44.10;;
52668;SDS011;74205;52.786;6.892;2024-01-11T17:22:46;71.97;;;44.22;;
52668;SDS011;74205;52.786;6.892;2024-01-11T17:26:07;68.07;;;45.17;;
52668;SDS011;74205;52.786;6.892;2024-01-11T17:29:28;75.28;;;43.92;;
52668;SDS011;74205;52.786;6.892;2024-01-11T17:32:49;65.85;;;44.90;;
52668;SDS011;74205;52.786;6.892;2024-01-11T17:36:11;71.90;;;42.90;;
52668;SDS011;74205;52.786;6.892;2024-01-11T17:39:31;71.78;;;44.08;;
52668;SDS011;74205;52.786;6.892;2024-01-11T17:42:52;69.18;;;46.08;;
52668;SDS011;74205;52.786;6.892;2024-01-11T17:46:13;67.50;;;42.60;;
52668;SDS011;74205;52.786;6.892;2024-01-11T17:49:39;90.35;;;52.83;;
52668;SDS011;74205;52.786;6.892;2024-01-11T17:53:01;66.60;;;44.97;;
52668;SDS011;74205;52.786;6.892;2024-01-11T17:56:22;65.18;;;41.10;;
52668;SDS011;74205;52.786;6.892;2024-01-11T17:59:43;61.20;;;42.17;;
52668;SDS011;74205;52.786;6.892;2024-01-11T18:03:03;69.47;;;45.10;;
52668;SDS011;74205;52.786;6.892;2024-01-11T18:06:24;73.13;;;47.40;;
52668;SDS011;74205;52.786;6.892;2024-01-11T18:09:45;71.38;;;43.00;;
52668;SDS011;74205;52.786;6.892;2024-01-11T18:13:05;64.75;;;43.35;;
52668;SDS011;74205;52.786;6.892;2024-01-11T18:16:26;71.45;;;43.72;;
52668;SDS011;74205;52.786;6.892;2024-01-11T18:19:47;63.05;;;42.75;;
52668;SDS011;74205;52.786;6.892;2024-01-11T18:23:08;64.32;;;43.72;;
52668;SDS011;74205;52.786;6.892;2024-01-11T18:26:28;86.35;;;49.13;;
52668;SDS011;74205;52.786;6.892;2024-01-11T18:29:49;72.38;;;45.50;;
52668;SDS011;74205;52.786;6.892;2024-01-11T18:33:10;67.95;;;44.15;;
52668;SDS011;74205;52.786;6.892;2024-01-11T18:36:30;71.57;;;44.10;;
52668;SDS011;74205;52.786;6.892;2024-01-11T18:39:51;68.43;;;44.05;;
52668;SDS011;74205;52.786;6.892;2024-01-11T18:43:12;65.72;;;41.70;;
52668;SDS011;74205;52.786;6.892;2024-01-11T18:46:39;74.30;;;44.78;;
52668;SDS011;74205;52.786;6.892;2024-01-11T18:50:00;75.22;;;44.10;;
52668;SDS011;74205;52.786;6.892;2024-01-11T18:53:21;73.10;;;42.10;;
52668;SDS011;74205;52.786;6.892;2024-01-11T18:56:42;77.45;;;49.92;;
52668;SDS011;74205;52.786;6.892;2024-01-11T19:00:03;70.97;;;45.28;;
52668;SDS011;74205;52.786;6.892;2024-01-11T19:03:25;67.25;;;44.67;;
52668;SDS011;74205;52.786;6.892;2024-01-11T19:06:45;69.57;;;44.35;;
52668;SDS011;74205;52.786;6.892;2024-01-11T19:10:07;73.85;;;44.92;;
52668;SDS011;74205;52.786;6.892;2024-01-11T19:13:29;69.97;;;44.37;;
52668;SDS011;74205;52.786;6.892;2024-01-11T19:16:50;66.35;;;41.83;;
52668;SDS011;74205;52.786;6.892;2024-01-11T19:20:12;72.90;;;44.63;;
52668;SDS011;74205;52.786;6.892;2024-01-11T19:23:32;66.18;;;41.95;;
52668;SDS011;74205;52.786;6.892;2024-01-11T19:26:53;76.80;;;44.65;;
52668;SDS011;74205;52.786;6.892;2024-01-11T19:30:13;73.57;;;45.60;;
52668;SDS011;74205;52.786;6.892;2024-01-11T19:33:34;69.68;;;43.55;;
52668;SDS011;74205;52.786;6.892;2024-01-11T19:36:55;65.55;;;42.03;;
52668;SDS011;74205;52.786;6.892;2024-01-11T19:40:16;69.13;;;43.42;;
52668;SDS011;74205;52.786;6.892;2024-01-11T19:43:36;73.45;;;45.55;;